sensor_id;sensor_type;location;lat;lon;timestamp;P1;durP1;ratioP1;P2;durP2;ratioP2
81006;SDS011;70472;47.592;17.640;2024-03-22T00:00:00;19.00;;;19.00;;
81006;SDS011;70472;47.592;17.640;2024-03-22T00:00:32;18.37;;;18.37;;
81006;SDS011;70472;47.592;17.640;2024-03-22T00:01:03;17.67;;;17.67;;
81006;SDS011;70472;47.592;17.640;2024-03-22T00:01:34;17.43;;;17.43;;
81006;SDS011;70472;47.592;17.640;2024-03-22T00:02:05;17.57;;;17.57;;
81006;SDS011;70472;47.592;17.640;2024-03-22T00:02:37;17.37;;;17.37;;
81006;SDS011;70472;47.592;17.640;2024-03-22T00:03:09;18.43;;;18.43;;
81006;SDS011;70472;47.592;17.640;2024-03-22T00:03:40;17.93;;;17.93;;
81006;SDS011;70472;47.592;17.640;2024-03-22T00:04:12;18.57;;;18.57;;
81006;SDS011;70472;47.592;17.640;2024-03-22T00:04:44;17.10;;;17.10;;
81006;SDS011;70472;47.592;17.640;2024-03-22T00:05:15;19.10;;;19.10;;
81006;SDS011;70472;47.592;17.640;2024-03-22T00:05:46;18.03;;;18.03;;
81006;SDS011;70472;47.592;17.640;2024-03-22T00:06:17;17.57;;;17.57;;
81006;SDS011;70472;47.592;17.640;2024-03-22T00:06:49;16.83;;;16.83;;
81006;SDS011;70472;47.592;17.640;2024-03-22T00:07:20;16.27;;;16.27;;
81006;SDS011;70472;47.592;17.640;2024-03-22T00:07:51;17.17;;;17.17;;
81006;SDS011;70472;47.592;17.640;2024-03-22T00:08:23;17.27;;;17.27;;
81006;SDS011;70472;47.592;17.640;2024-03-22T00:08:54;17.87;;;17.87;;
81006;SDS011;70472;47.592;17.640;2024-03-22T00:09:25;16.57;;;16.57;;
81006;SDS011;70472;47.592;17.640;2024-03-22T00:09:56;16.60;;;16.60;;
81006;SDS011;70472;47.592;17.640;2024-03-22T00:10:28;17.50;;;17.50;;
81006;SDS011;70472;47.592;17.640;2024-03-22T00:10:59;16.37;;;16.37;;
81006;SDS011;70472;47.592;17.640;2024-03-22T00:11:30;16.80;;;16.80;;
81006;SDS011;70472;47.592;17.640;2024-03-22T00:12:02;17.60;;;17.60;;
81006;SDS011;70472;47.592;17.640;2024-03-22T00:12:34;16.70;;;16.70;;
81006;SDS011;70472;47.592;17.640;2024-03-22T00:13:05;15.07;;;15.07;;
81006;SDS011;70472;47.592;17.640;2024-03-22T00:13:36;15.53;;;15.53;;
81006;SDS011;70472;47.592;17.640;2024-03-22T00:14:08;17.20;;;17.20;;
81006;SDS011;70472;47.592;17.640;2024-03-22T00:14:40;15.90;;;15.90;;
81006;SDS011;70472;47.592;17.640;2024-03-22T00:15:11;15.70;;;15.70;;
81006;SDS011;70472;47.592;17.640;2024-03-22T00:15:43;16.60;;;16.60;;
81006;SDS011;70472;47.592;17.640;2024-03-22T00:16:14;15.80;;;15.80;;
81006;SDS011;70472;47.592;17.640;2024-03-22T00:16:45;16.40;;;16.40;;
81006;SDS011;70472;47.592;17.640;2024-03-22T00:17:17;15.93;;;15.93;;
81006;SDS011;70472;47.592;17.640;2024-03-22T00:17:48;15.83;;;15.83;;
81006;SDS011;70472;47.592;17.640;2024-03-22T00:18:19;16.20;;;16.20;;
81006;SDS011;70472;47.592;17.640;2024-03-22T00:18:50;16.07;;;16.07;;
81006;SDS011;70472;47.592;17.640;2024-03-22T00:19:22;15.63;;;15.63;;
81006;SDS011;70472;47.592;17.640;2024-03-22T00:19:53;16.00;;;16.00;;
81006;SDS011;70472;47.592;17.640;2024-03-22T00:20:24;16.00;;;16.00;;
81006;SDS011;70472;47.592;17.640;2024-03-22T00:20:55;15.63;;;15.63;;
81006;SDS011;70472;47.592;17.640;2024-03-22T00:21:27;14.77;;;14.77;;
81006;SDS011;70472;47.592;17.640;2024-03-22T00:21:59;15.07;;;15.07;;
81006;SDS011;70472;47.592;17.640;2024-03-22T00:22:30;14.83;;;14.83;;
81006;SDS011;70472;47.592;17.640;2024-03-22T00:23:01;14.83;;;14.83;;
81006;SDS011;70472;47.592;17.640;2024-03-22T00:23:33;15.27;;;15.27;;
81006;SDS011;70472;47.592;17.640;2024-03-22T00:24:04;16.53;;;16.53;;
81006;SDS011;70472;47.592;17.640;2024-03-22T00:24:35;14.83;;;14.83;;
81006;SDS011;70472;47.592;17.640;2024-03-22T00:25:07;15.97;;;15.97;;
81006;SDS011;70472;47.592;17.640;2024-03-22T00:25:38;15.47;;;15.47;;
81006;SDS011;70472;47.592;17.640;2024-03-22T00:26:12;15.83;;;15.83;;
81006;SDS011;70472;47.592;17.640;2024-03-22T00:26:43;15.37;;;15.37;;
81006;SDS011;70472;47.592;17.640;2024-03-22T00:27:19;15.33;;;15.33;;
81006;SDS011;70472;47.592;17.640;2024-03-22T00:27:50;15.50;;;15.50;;
81006;SDS011;70472;47.592;17.640;2024-03-22T00:28:22;15.57;;;15.57;;
81006;SDS011;70472;47.592;17.640;2024-03-22T00:28:53;15.10;;;15.10;;
81006;SDS011;70472;47.592;17.640;2024-03-22T00:29:24;14.57;;;14.57;;
81006;SDS011;70472;47.592;17.640;2024-03-22T00:29:56;14.63;;;14.63;;
81006;SDS011;70472;47.592;17.640;2024-03-22T00:30:27;15.53;;;15.53;;
81006;SDS011;70472;47.592;17.640;2024-03-22T00:30:58;14.70;;;14.70;;
81006;SDS011;70472;47.592;17.640;2024-03-22T00:31:29;14.93;;;14.93;;
81006;SDS011;70472;47.592;17.640;2024-03-22T00:32:01;14.33;;;14.33;;
81006;SDS011;70472;47.592;17.640;2024-03-22T00:32:32;14.13;;;14.13;;
81006;SDS011;70472;47.592;17.640;2024-03-22T00:33:03;15.33;;;15.33;;
81006;SDS011;70472;47.592;17.640;2024-03-22T00:33:35;13.53;;;13.53;;
81006;SDS011;70472;47.592;17.640;2024-03-22T00:34:06;14.07;;;14.07;;
81006;SDS011;70472;47.592;17.640;2024-03-22T00:34:37;14.47;;;14.47;;
81006;SDS011;70472;47.592;17.640;2024-03-22T00:35:09;14.37;;;14.37;;
81006;SDS011;70472;47.592;17.640;2024-03-22T00:35:40;14.80;;;14.80;;
81006;SDS011;70472;47.592;17.640;2024-03-22T00:36:11;14.60;;;14.60;;
81006;SDS011;70472;47.592;17.640;2024-03-22T00:36:43;13.97;;;13.97;;
81006;SDS011;70472;47.592;17.640;2024-03-22T00:37:14;14.73;;;14.73;;
81006;SDS011;70472;47.592;17.640;2024-03-22T00:37:45;15.23;;;15.23;;
81006;SDS011;70472;47.592;17.640;2024-03-22T00:38:16;14.60;;;14.60;;
81006;SDS011;70472;47.592;17.640;2024-03-22T00:38:48;14.50;;;14.50;;
81006;SDS011;70472;47.592;17.640;2024-03-22T00:39:19;15.07;;;15.07;;
81006;SDS011;70472;47.592;17.640;2024-03-22T00:39:50;14.40;;;14.40;;
81006;SDS011;70472;47.592;17.640;2024-03-22T00:40:21;14.57;;;14.57;;
81006;SDS011;70472;47.592;17.640;2024-03-22T00:40:53;15.10;;;15.10;;
81006;SDS011;70472;47.592;17.640;2024-03-22T00:41:24;14.73;;;14.73;;
81006;SDS011;70472;47.592;17.640;2024-03-22T00:41:55;14.47;;;14.47;;
81006;SDS011;70472;47.592;17.640;2024-03-22T00:42:26;14.10;;;14.10;;
81006;SDS011;70472;47.592;17.640;2024-03-22T00:42:58;14.60;;;14.60;;
81006;SDS011;70472;47.592;17.640;2024-03-22T00:43:29;14.63;;;14.63;;
81006;SDS011;70472;47.592;17.640;2024-03-22T00:44:00;13.90;;;13.90;;
81006;SDS011;70472;47.592;17.640;2024-03-22T00:44:32;13.63;;;13.63;;
81006;SDS011;70472;47.592;17.640;2024-03-22T00:45:03;14.77;;;14.77;;
81006;SDS011;70472;47.592;17.640;2024-03-22T00:45:35;13.77;;;13.77;;
81006;SDS011;70472;47.592;17.640;2024-03-22T00:46:06;13.63;;;13.63;;
81006;SDS011;70472;47.592;17.640;2024-03-22T00:46:37;13.23;;;13.23;;
81006;SDS011;70472;47.592;17.640;2024-03-22T00:47:09;13.77;;;13.77;;
81006;SDS011;70472;47.592;17.640;2024-03-22T00:47:40;14.20;;;14.20;;
81006;SDS011;70472;47.592;17.640;2024-03-22T00:48:11;13.07;;;13.07;;
81006;SDS011;70472;47.592;17.640;2024-03-22T00:48:43;12.60;;;12.60;;
81006;SDS011;70472;47.592;17.640;2024-03-22T00:49:14;12.10;;;12.10;;
81006;SDS011;70472;47.592;17.640;2024-03-22T00:49:46;12.57;;;12.57;;
81006;SDS011;70472;47.592;17.640;2024-03-22T00:50:17;13.13;;;13.13;;
81006;SDS011;70472;47.592;17.640;2024-03-22T00:50:49;13.87;;;13.87;;
81006;SDS011;70472;47.592;17.640;2024-03-22T00:51:20;12.97;;;12.97;;
81006;SDS011;70472;47.592;17.640;2024-03-22T00:51:51;11.67;;;11.67;;
81006;SDS011;70472;47.592;17.640;2024-03-22T00:52:23;11.93;;;11.93;;
81006;SDS011;70472;47.592;17.640;2024-03-22T00:52:54;12.67;;;12.67;;
81006;SDS011;70472;47.592;17.640;2024-03-22T00:53:25;12.97;;;12.97;;
81006;SDS011;70472;47.592;17.640;2024-03-22T00:53:57;12.23;;;12.23;;
81006;SDS011;70472;47.592;17.640;2024-03-22T00:54:28;12.50;;;12.50;;
81006;SDS011;70472;47.592;17.640;2024-03-22T00:54:59;12.07;;;12.07;;
81006;SDS011;70472;47.592;17.640;2024-03-22T00:55:30;11.97;;;11.97;;
81006;SDS011;70472;47.592;17.640;2024-03-22T00:56:02;12.03;;;12.03;;
81006;SDS011;70472;47.592;17.640;2024-03-22T00:56:33;12.70;;;12.70;;
81006;SDS011;70472;47.592;17.640;2024-03-22T00:57:05;11.93;;;11.93;;
81006;SDS011;70472;47.592;17.640;2024-03-22T00:57:36;11.77;;;11.77;;
81006;SDS011;70472;47.592;17.640;2024-03-22T00:58:07;12.97;;;12.97;;
81006;SDS011;70472;47.592;17.640;2024-03-22T00:58:38;11.73;;;11.73;;
81006;SDS011;70472;47.592;17.640;2024-03-22T00:59:10;11.57;;;11.57;;
81006;SDS011;70472;47.592;17.640;2024-03-22T00:59:41;11.40;;;11.40;;
81006;SDS011;70472;47.592;17.640;2024-03-22T01:00:12;12.30;;;12.30;;
81006;SDS011;70472;47.592;17.640;2024-03-22T01:00:44;11.73;;;11.73;;
81006;SDS011;70472;47.592;17.640;2024-03-22T01:01:17;11.00;;;11.00;;
81006;SDS011;70472;47.592;17.640;2024-03-22T01:01:48;11.43;;;11.43;;
81006;SDS011;70472;47.592;17.640;2024-03-22T01:02:19;11.57;;;11.57;;
81006;SDS011;70472;47.592;17.640;2024-03-22T01:02:51;11.20;;;11.20;;
81006;SDS011;70472;47.592;17.640;2024-03-22T01:03:22;11.70;;;11.70;;
81006;SDS011;70472;47.592;17.640;2024-03-22T01:03:53;12.13;;;12.13;;
81006;SDS011;70472;47.592;17.640;2024-03-22T01:04:25;12.10;;;12.10;;
81006;SDS011;70472;47.592;17.640;2024-03-22T01:04:56;12.47;;;12.47;;
81006;SDS011;70472;47.592;17.640;2024-03-22T01:05:27;12.13;;;12.13;;
81006;SDS011;70472;47.592;17.640;2024-03-22T01:05:59;12.13;;;12.13;;
81006;SDS011;70472;47.592;17.640;2024-03-22T01:06:31;12.30;;;12.30;;
81006;SDS011;70472;47.592;17.640;2024-03-22T01:07:02;12.10;;;12.10;;
81006;SDS011;70472;47.592;17.640;2024-03-22T01:07:33;12.10;;;12.10;;
81006;SDS011;70472;47.592;17.640;2024-03-22T01:08:06;11.73;;;11.73;;
81006;SDS011;70472;47.592;17.640;2024-03-22T01:08:37;11.43;;;11.43;;
81006;SDS011;70472;47.592;17.640;2024-03-22T01:09:08;11.30;;;11.30;;
81006;SDS011;70472;47.592;17.640;2024-03-22T01:09:39;11.77;;;11.77;;
81006;SDS011;70472;47.592;17.640;2024-03-22T01:10:11;11.73;;;11.73;;
81006;SDS011;70472;47.592;17.640;2024-03-22T01:10:43;11.67;;;11.67;;
81006;SDS011;70472;47.592;17.640;2024-03-22T01:11:14;12.67;;;12.67;;
81006;SDS011;70472;47.592;17.640;2024-03-22T01:11:46;12.87;;;12.87;;
81006;SDS011;70472;47.592;17.640;2024-03-22T01:12:17;11.97;;;11.97;;
81006;SDS011;70472;47.592;17.640;2024-03-22T01:12:48;11.17;;;11.17;;
81006;SDS011;70472;47.592;17.640;2024-03-22T01:13:20;11.33;;;11.33;;
81006;SDS011;70472;47.592;17.640;2024-03-22T01:13:51;11.77;;;11.77;;
81006;SDS011;70472;47.592;17.640;2024-03-22T01:14:22;11.17;;;11.17;;
81006;SDS011;70472;47.592;17.640;2024-03-22T01:14:53;11.60;;;11.60;;
81006;SDS011;70472;47.592;17.640;2024-03-22T01:15:25;11.00;;;11.00;;
81006;SDS011;70472;47.592;17.640;2024-03-22T01:15:56;11.50;;;11.50;;
81006;SDS011;70472;47.592;17.640;2024-03-22T01:16:27;11.20;;;11.20;;
81006;SDS011;70472;47.592;17.640;2024-03-22T01:16:59;10.57;;;10.57;;
81006;SDS011;70472;47.592;17.640;2024-03-22T01:17:30;11.40;;;11.40;;
81006;SDS011;70472;47.592;17.640;2024-03-22T01:18:01;11.67;;;11.67;;
81006;SDS011;70472;47.592;17.640;2024-03-22T01:18:33;11.20;;;11.20;;
81006;SDS011;70472;47.592;17.640;2024-03-22T01:19:04;10.53;;;10.53;;
81006;SDS011;70472;47.592;17.640;2024-03-22T01:19:35;10.67;;;10.67;;
81006;SDS011;70472;47.592;17.640;2024-03-22T01:20:07;11.17;;;11.17;;
81006;SDS011;70472;47.592;17.640;2024-03-22T01:20:38;12.07;;;12.07;;
81006;SDS011;70472;47.592;17.640;2024-03-22T01:21:10;11.27;;;11.27;;
81006;SDS011;70472;47.592;17.640;2024-03-22T01:21:41;11.43;;;11.43;;
81006;SDS011;70472;47.592;17.640;2024-03-22T01:22:12;12.20;;;12.20;;
81006;SDS011;70472;47.592;17.640;2024-03-22T01:22:43;11.70;;;11.70;;
81006;SDS011;70472;47.592;17.640;2024-03-22T01:23:15;11.90;;;11.90;;
81006;SDS011;70472;47.592;17.640;2024-03-22T01:23:46;12.07;;;12.07;;
81006;SDS011;70472;47.592;17.640;2024-03-22T01:24:17;12.10;;;12.10;;
81006;SDS011;70472;47.592;17.640;2024-03-22T01:24:49;12.87;;;12.87;;
81006;SDS011;70472;47.592;17.640;2024-03-22T01:25:20;12.37;;;12.37;;
81006;SDS011;70472;47.592;17.640;2024-03-22T01:25:51;11.50;;;11.50;;
81006;SDS011;70472;47.592;17.640;2024-03-22T01:26:22;11.07;;;11.07;;
81006;SDS011;70472;47.592;17.640;2024-03-22T01:26:54;11.07;;;11.07;;
81006;SDS011;70472;47.592;17.640;2024-03-22T01:27:25;11.40;;;11.40;;
81006;SDS011;70472;47.592;17.640;2024-03-22T01:27:56;10.80;;;10.80;;
81006;SDS011;70472;47.592;17.640;2024-03-22T01:28:27;10.43;;;10.43;;
81006;SDS011;70472;47.592;17.640;2024-03-22T01:28:59;10.87;;;10.87;;
81006;SDS011;70472;47.592;17.640;2024-03-22T01:29:30;11.47;;;11.47;;
81006;SDS011;70472;47.592;17.640;2024-03-22T01:30:01;11.47;;;11.47;;
81006;SDS011;70472;47.592;17.640;2024-03-22T01:30:33;11.23;;;11.23;;
81006;SDS011;70472;47.592;17.640;2024-03-22T01:31:04;11.73;;;11.73;;
81006;SDS011;70472;47.592;17.640;2024-03-22T01:31:36;10.70;;;10.70;;
81006;SDS011;70472;47.592;17.640;2024-03-22T01:32:07;11.17;;;11.17;;
81006;SDS011;70472;47.592;17.640;2024-03-22T01:32:38;11.93;;;11.93;;
81006;SDS011;70472;47.592;17.640;2024-03-22T01:33:10;11.50;;;11.50;;
81006;SDS011;70472;47.592;17.640;2024-03-22T01:33:41;11.83;;;11.83;;
81006;SDS011;70472;47.592;17.640;2024-03-22T01:34:12;11.47;;;11.47;;
81006;SDS011;70472;47.592;17.640;2024-03-22T01:34:43;11.33;;;11.33;;
81006;SDS011;70472;47.592;17.640;2024-03-22T01:35:15;11.93;;;11.93;;
81006;SDS011;70472;47.592;17.640;2024-03-22T01:35:46;12.23;;;12.23;;
81006;SDS011;70472;47.592;17.640;2024-03-22T01:36:17;11.47;;;11.47;;
81006;SDS011;70472;47.592;17.640;2024-03-22T01:36:49;11.03;;;11.03;;
81006;SDS011;70472;47.592;17.640;2024-03-22T01:37:24;11.73;;;11.73;;
81006;SDS011;70472;47.592;17.640;2024-03-22T01:37:55;11.17;;;11.17;;
81006;SDS011;70472;47.592;17.640;2024-03-22T01:38:26;10.40;;;10.40;;
81006;SDS011;70472;47.592;17.640;2024-03-22T01:38:57;11.33;;;11.33;;
81006;SDS011;70472;47.592;17.640;2024-03-22T01:39:29;11.33;;;11.33;;
81006;SDS011;70472;47.592;17.640;2024-03-22T01:40:00;11.60;;;11.60;;
81006;SDS011;70472;47.592;17.640;2024-03-22T01:40:33;11.60;;;11.60;;
81006;SDS011;70472;47.592;17.640;2024-03-22T01:41:04;11.17;;;11.17;;
81006;SDS011;70472;47.592;17.640;2024-03-22T01:41:35;11.60;;;11.60;;
81006;SDS011;70472;47.592;17.640;2024-03-22T01:42:06;11.70;;;11.70;;
81006;SDS011;70472;47.592;17.640;2024-03-22T01:42:37;12.20;;;12.20;;
81006;SDS011;70472;47.592;17.640;2024-03-22T01:43:09;11.53;;;11.53;;
81006;SDS011;70472;47.592;17.640;2024-03-22T01:43:40;12.10;;;12.10;;
81006;SDS011;70472;47.592;17.640;2024-03-22T01:44:11;11.60;;;11.60;;
81006;SDS011;70472;47.592;17.640;2024-03-22T01:44:42;11.10;;;11.10;;
81006;SDS011;70472;47.592;17.640;2024-03-22T01:45:14;11.47;;;11.47;;
81006;SDS011;70472;47.592;17.640;2024-03-22T01:45:45;11.10;;;11.10;;
81006;SDS011;70472;47.592;17.640;2024-03-22T01:46:16;10.47;;;10.47;;
81006;SDS011;70472;47.592;17.640;2024-03-22T01:46:48;10.93;;;10.93;;
81006;SDS011;70472;47.592;17.640;2024-03-22T01:47:19;11.33;;;11.33;;
81006;SDS011;70472;47.592;17.640;2024-03-22T01:47:54;11.67;;;11.67;;
81006;SDS011;70472;47.592;17.640;2024-03-22T01:48:25;11.17;;;11.17;;
81006;SDS011;70472;47.592;17.640;2024-03-22T01:48:57;11.13;;;11.13;;
81006;SDS011;70472;47.592;17.640;2024-03-22T01:49:29;11.00;;;11.00;;
81006;SDS011;70472;47.592;17.640;2024-03-22T01:50:01;11.93;;;11.93;;
81006;SDS011;70472;47.592;17.640;2024-03-22T01:50:32;11.23;;;11.23;;
81006;SDS011;70472;47.592;17.640;2024-03-22T01:51:04;11.17;;;11.17;;
81006;SDS011;70472;47.592;17.640;2024-03-22T01:51:36;11.17;;;11.17;;
81006;SDS011;70472;47.592;17.640;2024-03-22T01:52:08;11.23;;;11.23;;
81006;SDS011;70472;47.592;17.640;2024-03-22T01:52:39;11.43;;;11.43;;
81006;SDS011;70472;47.592;17.640;2024-03-22T01:53:11;11.50;;;11.50;;
81006;SDS011;70472;47.592;17.640;2024-03-22T01:53:42;11.73;;;11.73;;
81006;SDS011;70472;47.592;17.640;2024-03-22T01:54:15;10.60;;;10.60;;
81006;SDS011;70472;47.592;17.640;2024-03-22T01:54:47;11.47;;;11.47;;
81006;SDS011;70472;47.592;17.640;2024-03-22T01:55:19;12.57;;;12.57;;
81006;SDS011;70472;47.592;17.640;2024-03-22T01:55:51;11.70;;;11.70;;
81006;SDS011;70472;47.592;17.640;2024-03-22T01:56:23;11.33;;;11.33;;
81006;SDS011;70472;47.592;17.640;2024-03-22T01:56:54;10.77;;;10.77;;
81006;SDS011;70472;47.592;17.640;2024-03-22T01:57:27;10.90;;;10.90;;
81006;SDS011;70472;47.592;17.640;2024-03-22T01:57:58;10.90;;;10.90;;
81006;SDS011;70472;47.592;17.640;2024-03-22T01:58:30;11.70;;;11.70;;
81006;SDS011;70472;47.592;17.640;2024-03-22T01:59:01;11.43;;;11.43;;
81006;SDS011;70472;47.592;17.640;2024-03-22T01:59:33;11.77;;;11.77;;
81006;SDS011;70472;47.592;17.640;2024-03-22T02:00:05;11.37;;;11.37;;
81006;SDS011;70472;47.592;17.640;2024-03-22T02:00:44;11.63;;;11.63;;
81006;SDS011;70472;47.592;17.640;2024-03-22T02:01:15;11.43;;;11.43;;
81006;SDS011;70472;47.592;17.640;2024-03-22T02:01:46;11.20;;;11.20;;
81006;SDS011;70472;47.592;17.640;2024-03-22T02:02:18;11.00;;;11.00;;
81006;SDS011;70472;47.592;17.640;2024-03-22T02:02:49;10.80;;;10.80;;
81006;SDS011;70472;47.592;17.640;2024-03-22T02:03:21;11.53;;;11.53;;
81006;SDS011;70472;47.592;17.640;2024-03-22T02:03:52;11.30;;;11.30;;
81006;SDS011;70472;47.592;17.640;2024-03-22T02:04:23;11.40;;;11.40;;
81006;SDS011;70472;47.592;17.640;2024-03-22T02:04:56;10.13;;;10.13;;
81006;SDS011;70472;47.592;17.640;2024-03-22T02:05:27;10.87;;;10.87;;
81006;SDS011;70472;47.592;17.640;2024-03-22T02:05:58;11.47;;;11.47;;
81006;SDS011;70472;47.592;17.640;2024-03-22T02:06:30;11.43;;;11.43;;
81006;SDS011;70472;47.592;17.640;2024-03-22T02:07:01;10.37;;;10.37;;
81006;SDS011;70472;47.592;17.640;2024-03-22T02:07:32;11.80;;;11.80;;
81006;SDS011;70472;47.592;17.640;2024-03-22T02:08:04;11.83;;;11.83;;
81006;SDS011;70472;47.592;17.640;2024-03-22T02:08:35;11.50;;;11.50;;
81006;SDS011;70472;47.592;17.640;2024-03-22T02:09:07;11.90;;;11.90;;
81006;SDS011;70472;47.592;17.640;2024-03-22T02:09:38;12.53;;;12.53;;
81006;SDS011;70472;47.592;17.640;2024-03-22T02:10:09;12.17;;;12.17;;
81006;SDS011;70472;47.592;17.640;2024-03-22T02:10:41;11.73;;;11.73;;
81006;SDS011;70472;47.592;17.640;2024-03-22T02:11:14;11.40;;;11.40;;
81006;SDS011;70472;47.592;17.640;2024-03-22T02:11:45;11.47;;;11.47;;
81006;SDS011;70472;47.592;17.640;2024-03-22T02:12:17;11.93;;;11.93;;
81006;SDS011;70472;47.592;17.640;2024-03-22T02:12:48;12.17;;;12.17;;
81006;SDS011;70472;47.592;17.640;2024-03-22T02:13:19;12.67;;;12.67;;
81006;SDS011;70472;47.592;17.640;2024-03-22T02:13:51;12.77;;;12.77;;
81006;SDS011;70472;47.592;17.640;2024-03-22T02:14:22;11.97;;;11.97;;
81006;SDS011;70472;47.592;17.640;2024-03-22T02:14:57;12.70;;;12.70;;
81006;SDS011;70472;47.592;17.640;2024-03-22T02:15:28;13.10;;;13.10;;
81006;SDS011;70472;47.592;17.640;2024-03-22T02:16:02;12.93;;;12.93;;
81006;SDS011;70472;47.592;17.640;2024-03-22T02:16:34;12.77;;;12.77;;
81006;SDS011;70472;47.592;17.640;2024-03-22T02:17:05;13.70;;;13.70;;
81006;SDS011;70472;47.592;17.640;2024-03-22T02:17:36;12.83;;;12.83;;
81006;SDS011;70472;47.592;17.640;2024-03-22T02:18:08;12.93;;;12.93;;
81006;SDS011;70472;47.592;17.640;2024-03-22T02:18:39;12.70;;;12.70;;
81006;SDS011;70472;47.592;17.640;2024-03-22T02:19:10;13.30;;;13.30;;
81006;SDS011;70472;47.592;17.640;2024-03-22T02:19:41;13.23;;;13.23;;
81006;SDS011;70472;47.592;17.640;2024-03-22T02:20:13;13.00;;;13.00;;
81006;SDS011;70472;47.592;17.640;2024-03-22T02:20:44;13.47;;;13.47;;
81006;SDS011;70472;47.592;17.640;2024-03-22T02:21:15;13.03;;;13.03;;
81006;SDS011;70472;47.592;17.640;2024-03-22T02:21:46;14.03;;;14.03;;
81006;SDS011;70472;47.592;17.640;2024-03-22T02:22:18;13.57;;;13.57;;
81006;SDS011;70472;47.592;17.640;2024-03-22T02:22:49;13.53;;;13.53;;
81006;SDS011;70472;47.592;17.640;2024-03-22T02:23:32;14.03;;;14.03;;
81006;SDS011;70472;47.592;17.640;2024-03-22T02:24:10;13.57;;;13.57;;
81006;SDS011;70472;47.592;17.640;2024-03-22T02:24:43;11.73;;;11.73;;
81006;SDS011;70472;47.592;17.640;2024-03-22T02:25:14;12.03;;;12.03;;
81006;SDS011;70472;47.592;17.640;2024-03-22T02:25:45;12.17;;;12.17;;
81006;SDS011;70472;47.592;17.640;2024-03-22T02:26:16;13.00;;;13.00;;
81006;SDS011;70472;47.592;17.640;2024-03-22T02:26:48;11.90;;;11.90;;
81006;SDS011;70472;47.592;17.640;2024-03-22T02:27:19;12.53;;;12.53;;
81006;SDS011;70472;47.592;17.640;2024-03-22T02:27:50;12.80;;;12.80;;
81006;SDS011;70472;47.592;17.640;2024-03-22T02:28:22;11.83;;;11.83;;
81006;SDS011;70472;47.592;17.640;2024-03-22T02:28:53;10.87;;;10.87;;
81006;SDS011;70472;47.592;17.640;2024-03-22T02:29:24;12.27;;;12.27;;
81006;SDS011;70472;47.592;17.640;2024-03-22T02:29:55;12.87;;;12.87;;
81006;SDS011;70472;47.592;17.640;2024-03-22T02:30:27;12.03;;;12.03;;
81006;SDS011;70472;47.592;17.640;2024-03-22T02:30:58;11.90;;;11.90;;
81006;SDS011;70472;47.592;17.640;2024-03-22T02:31:30;11.97;;;11.97;;
81006;SDS011;70472;47.592;17.640;2024-03-22T02:32:01;12.53;;;12.53;;
81006;SDS011;70472;47.592;17.640;2024-03-22T02:32:33;12.50;;;12.50;;
81006;SDS011;70472;47.592;17.640;2024-03-22T02:33:04;13.10;;;13.10;;
81006;SDS011;70472;47.592;17.640;2024-03-22T02:33:35;12.53;;;12.53;;
81006;SDS011;70472;47.592;17.640;2024-03-22T02:34:06;12.03;;;12.03;;
81006;SDS011;70472;47.592;17.640;2024-03-22T02:34:38;11.63;;;11.63;;
81006;SDS011;70472;47.592;17.640;2024-03-22T02:35:09;12.77;;;12.77;;
81006;SDS011;70472;47.592;17.640;2024-03-22T02:35:41;12.83;;;12.83;;
81006;SDS011;70472;47.592;17.640;2024-03-22T02:36:12;12.47;;;12.47;;
81006;SDS011;70472;47.592;17.640;2024-03-22T02:36:44;12.97;;;12.97;;
81006;SDS011;70472;47.592;17.640;2024-03-22T02:37:15;12.13;;;12.13;;
81006;SDS011;70472;47.592;17.640;2024-03-22T02:37:46;12.10;;;12.10;;
81006;SDS011;70472;47.592;17.640;2024-03-22T02:38:18;13.27;;;13.27;;
81006;SDS011;70472;47.592;17.640;2024-03-22T02:38:49;12.87;;;12.87;;
81006;SDS011;70472;47.592;17.640;2024-03-22T02:39:21;12.70;;;12.70;;
81006;SDS011;70472;47.592;17.640;2024-03-22T02:39:52;13.27;;;13.27;;
81006;SDS011;70472;47.592;17.640;2024-03-22T02:40:23;13.77;;;13.77;;
81006;SDS011;70472;47.592;17.640;2024-03-22T02:40:54;13.97;;;13.97;;
81006;SDS011;70472;47.592;17.640;2024-03-22T02:41:28;13.57;;;13.57;;
81006;SDS011;70472;47.592;17.640;2024-03-22T02:41:59;12.70;;;12.70;;
81006;SDS011;70472;47.592;17.640;2024-03-22T02:42:30;12.67;;;12.67;;
81006;SDS011;70472;47.592;17.640;2024-03-22T02:43:02;12.70;;;12.70;;
81006;SDS011;70472;47.592;17.640;2024-03-22T02:43:33;14.10;;;14.10;;
81006;SDS011;70472;47.592;17.640;2024-03-22T02:44:04;13.43;;;13.43;;
81006;SDS011;70472;47.592;17.640;2024-03-22T02:44:36;12.53;;;12.53;;
81006;SDS011;70472;47.592;17.640;2024-03-22T02:45:07;13.23;;;13.23;;
81006;SDS011;70472;47.592;17.640;2024-03-22T02:45:39;13.33;;;13.33;;
81006;SDS011;70472;47.592;17.640;2024-03-22T02:46:10;13.03;;;13.03;;
81006;SDS011;70472;47.592;17.640;2024-03-22T02:46:42;12.80;;;12.80;;
81006;SDS011;70472;47.592;17.640;2024-03-22T02:47:13;12.80;;;12.80;;
81006;SDS011;70472;47.592;17.640;2024-03-22T02:47:44;12.63;;;12.63;;
81006;SDS011;70472;47.592;17.640;2024-03-22T02:48:15;13.00;;;13.00;;
81006;SDS011;70472;47.592;17.640;2024-03-22T02:48:47;12.93;;;12.93;;
81006;SDS011;70472;47.592;17.640;2024-03-22T02:49:18;12.53;;;12.53;;
81006;SDS011;70472;47.592;17.640;2024-03-22T02:49:49;12.13;;;12.13;;
81006;SDS011;70472;47.592;17.640;2024-03-22T02:50:20;12.57;;;12.57;;
81006;SDS011;70472;47.592;17.640;2024-03-22T02:50:54;12.70;;;12.70;;
81006;SDS011;70472;47.592;17.640;2024-03-22T02:51:26;13.63;;;13.63;;
81006;SDS011;70472;47.592;17.640;2024-03-22T02:51:58;13.50;;;13.50;;
81006;SDS011;70472;47.592;17.640;2024-03-22T02:52:29;12.77;;;12.77;;
81006;SDS011;70472;47.592;17.640;2024-03-22T02:53:00;13.07;;;13.07;;
81006;SDS011;70472;47.592;17.640;2024-03-22T02:53:31;13.23;;;13.23;;
81006;SDS011;70472;47.592;17.640;2024-03-22T02:54:03;13.60;;;13.60;;
81006;SDS011;70472;47.592;17.640;2024-03-22T02:54:35;13.03;;;13.03;;
81006;SDS011;70472;47.592;17.640;2024-03-22T02:55:06;13.20;;;13.20;;
81006;SDS011;70472;47.592;17.640;2024-03-22T02:55:38;13.63;;;13.63;;
81006;SDS011;70472;47.592;17.640;2024-03-22T02:56:11;14.33;;;14.33;;
81006;SDS011;70472;47.592;17.640;2024-03-22T02:56:42;13.00;;;13.00;;
81006;SDS011;70472;47.592;17.640;2024-03-22T02:57:14;13.10;;;13.10;;
81006;SDS011;70472;47.592;17.640;2024-03-22T02:57:45;13.50;;;13.50;;
81006;SDS011;70472;47.592;17.640;2024-03-22T02:58:17;13.63;;;13.63;;
81006;SDS011;70472;47.592;17.640;2024-03-22T02:58:50;13.70;;;13.70;;
81006;SDS011;70472;47.592;17.640;2024-03-22T02:59:22;13.57;;;13.57;;
81006;SDS011;70472;47.592;17.640;2024-03-22T02:59:56;14.30;;;14.30;;
81006;SDS011;70472;47.592;17.640;2024-03-22T03:00:30;12.63;;;12.63;;
81006;SDS011;70472;47.592;17.640;2024-03-22T03:01:05;13.20;;;13.20;;
81006;SDS011;70472;47.592;17.640;2024-03-22T03:01:36;13.87;;;13.87;;